createdAt,value
2023-05-05T05:07:33.026Z,2.65
2023-05-05T05:12:37.703Z,2.65
2023-05-05T05:17:42.066Z,2.85
2023-05-05T05:22:46.830Z,3.05
2023-05-05T05:33:07.505Z,2.92
2023-05-05T07:30:18.138Z,1.85
2023-05-05T07:35:25.027Z,1.23
2023-05-05T07:40:29.910Z,1.25
2023-05-05T07:45:34.148Z,1.58
2023-05-05T07:50:38.470Z,1.42
2023-05-05T07:55:42.897Z,2.00
2023-05-05T08:00:47.231Z,1.38
2023-05-05T08:05:51.923Z,2.08
2023-05-05T08:10:56.232Z,2.17
2023-05-05T08:16:00.715Z,2.03
2023-05-05T08:21:09.422Z,3.13
2023-05-05T08:26:13.730Z,3.15
2023-05-05T08:31:18.108Z,3.83
2023-05-05T08:36:22.582Z,3.10
2023-05-05T08:41:27.383Z,3.53
2023-05-05T08:46:32.300Z,3.40
2023-05-05T08:51:43.517Z,2.85
2023-05-05T08:56:51.524Z,2.83
2023-05-05T09:01:59.469Z,3.95
2023-05-05T09:07:04.336Z,5.18
2023-05-05T09:12:09.011Z,4.25
2023-05-05T09:17:26.864Z,3.30
2023-05-05T09:22:37.057Z,4.05
2023-05-05T09:27:43.924Z,3.85
2023-05-05T09:32:53.291Z,4.13
2023-05-05T09:37:59.086Z,2.92
2023-05-05T09:43:03.564Z,2.83
2023-05-05T09:48:08.158Z,4.72
2023-05-05T09:53:12.716Z,5.53
2023-05-05T09:58:31.462Z,1.35
2023-05-05T10:09:03.722Z,1.38
2023-05-05T10:14:16.738Z,2.03
2023-05-05T10:19:25.244Z,1.40
2023-05-05T10:24:39.507Z,1.33
2023-05-05T10:29:49.101Z,1.25
2023-05-05T10:35:04.859Z,1.00
2023-05-05T10:40:11.255Z,1.55
2023-05-05T10:45:15.815Z,4.70
2023-05-05T10:50:42.375Z,2.42
2023-05-05T10:55:50.088Z,1.75
2023-05-05T11:00:56.068Z,7.95
2023-05-05T11:06:08.396Z,8.50
2023-05-05T11:11:13.695Z,6.85
2023-05-05T11:16:47.797Z,5.38
2023-05-05T11:22:02.783Z,2.85
2023-05-05T11:27:07.592Z,1.42
2023-05-05T11:32:16.601Z,1.63
2023-05-05T11:37:24.988Z,1.98
2023-05-05T11:42:30.844Z,1.90
2023-05-05T11:47:35.269Z,1.55
2023-05-05T11:52:39.672Z,1.38
2023-05-05T11:57:43.960Z,1.50
2023-05-05T12:02:57.598Z,1.90
2023-05-05T12:08:02.722Z,1.77
2023-05-05T12:13:19.113Z,1.65
2023-05-05T12:18:23.715Z,1.33
2023-05-05T12:23:31.015Z,1.48
2023-05-05T12:28:48.990Z,1.38
2023-05-05T12:33:54.576Z,1.20
2023-05-05T12:38:59.437Z,1.42
2023-05-05T12:44:03.943Z,1.70
2023-05-05T12:49:09.902Z,1.58
2023-05-05T12:54:14.424Z,1.92
2023-05-05T12:59:25.073Z,2.38
2023-05-05T13:04:29.769Z,1.75
2023-05-05T13:09:37.239Z,1.48
2023-05-05T13:14:42.607Z,1.58
2023-05-05T13:19:46.946Z,1.20
2023-05-05T13:24:52.828Z,1.55
2023-05-05T13:29:57.575Z,2.28
2023-05-05T13:35:02.177Z,1.88
2023-05-05T13:40:09.247Z,3.78
2023-05-05T13:45:14.768Z,2.80
2023-05-05T13:50:21.042Z,1.48
2023-05-05T13:55:28.986Z,1.55
2023-05-05T14:00:36.836Z,3.33
2023-05-05T14:05:46.894Z,2.58
2023-05-05T14:10:52.441Z,2.25
2023-05-05T14:15:59.464Z,1.58
2023-05-05T14:21:05.340Z,1.63
2023-05-05T14:26:11.483Z,1.55
2023-05-05T14:31:18.363Z,1.10
2023-05-05T14:36:24.464Z,1.33
2023-05-05T14:41:32.010Z,1.27
2023-05-05T14:46:37.405Z,1.58
2023-05-05T14:51:43.733Z,1.98
2023-05-05T14:56:49.324Z,2.00
2023-05-05T15:01:55.201Z,1.92
2023-05-05T15:07:02.611Z,1.88
2023-05-05T15:12:11.056Z,2.50
2023-05-05T15:17:16.905Z,1.88
2023-05-05T15:22:22.434Z,1.85
2023-05-05T15:27:28.093Z,1.73
2023-05-05T15:32:33.748Z,2.08
2023-05-05T15:37:39.577Z,2.47
2023-05-05T15:42:45.239Z,4.65
2023-05-05T15:47:51.274Z,2.33
2023-05-05T15:52:58.332Z,2.33
2023-05-05T15:58:04.577Z,2.72
2023-05-05T16:03:10.410Z,6.40
2023-05-05T16:08:16.556Z,6.00
2023-05-05T16:13:22.516Z,12.20
2023-05-05T16:18:27.836Z,6.07
2023-05-05T16:23:33.276Z,3.60
2023-05-05T16:28:38.811Z,3.13
2023-05-05T16:33:44.429Z,2.78
2023-05-05T16:38:49.176Z,2.75
2023-05-05T16:43:55.717Z,3.40
2023-05-05T16:49:01.767Z,2.60
2023-05-05T16:54:09.071Z,2.40
2023-05-05T16:59:16.505Z,2.95
2023-05-05T17:04:21.838Z,2.35
2023-05-05T17:09:28.509Z,2.67
2023-05-05T17:14:34.239Z,3.15
2023-05-05T17:19:41.204Z,3.35
2023-05-05T17:24:46.661Z,3.70
2023-05-05T17:29:52.403Z,2.97
2023-05-05T17:34:57.059Z,2.45
2023-05-05T17:40:02.391Z,3.42
2023-05-05T17:45:10.168Z,3.15
2023-05-05T17:50:15.665Z,2.60
2023-05-05T17:55:21.975Z,2.03
2023-05-05T18:00:28.793Z,2.72
2023-05-05T18:05:34.835Z,2.47
2023-05-05T18:10:40.649Z,3.25
2023-05-05T18:15:46.382Z,2.70
2023-05-05T18:20:52.449Z,3.03
2023-05-05T18:25:57.518Z,3.20
2023-05-05T18:31:03.083Z,2.70
2023-05-05T18:36:09.939Z,2.60
2023-05-05T18:41:16.062Z,3.00
2023-05-05T18:46:23.677Z,3.28
2023-05-05T18:51:29.296Z,2.55
2023-05-05T18:56:34.409Z,3.05
2023-05-05T19:01:39.916Z,2.40
2023-05-05T19:06:45.658Z,2.17
2023-05-05T19:11:51.795Z,3.63
2023-05-05T19:16:59.538Z,2.53
2023-05-05T19:22:05.244Z,3.60
2023-05-05T19:27:16.431Z,2.92
2023-05-05T19:32:25.138Z,2.28
2023-05-05T19:37:32.295Z,2.47
2023-05-05T19:42:38.060Z,2.17
2023-05-05T19:47:44.219Z,1.92
2023-05-05T19:52:50.636Z,1.92
2023-05-05T19:57:57.668Z,2.05
2023-05-05T20:03:03.941Z,2.00
2023-05-05T20:08:10.437Z,2.15
2023-05-05T20:13:16.837Z,2.30
2023-05-05T20:18:22.700Z,2.67
2023-05-05T20:23:29.119Z,1.95
2023-05-05T20:28:35.437Z,1.98
2023-05-05T20:33:41.102Z,2.22
2023-05-05T20:38:45.922Z,2.22
2023-05-05T20:43:51.189Z,1.95
2023-05-05T20:48:56.806Z,1.95
2023-05-05T20:54:01.842Z,1.75
2023-05-05T20:59:07.940Z,2.35
2023-05-05T21:04:13.564Z,1.77
2023-05-05T21:09:20.740Z,2.65
2023-05-05T21:14:26.651Z,2.30
2023-05-05T21:19:33.816Z,1.90
2023-05-05T21:24:40.293Z,1.83
2023-05-05T21:29:45.691Z,2.03
2023-05-05T21:34:50.906Z,2.08
2023-05-05T21:39:56.656Z,1.58
2023-05-05T21:45:01.408Z,1.85
2023-05-05T21:50:10.941Z,2.20
2023-05-05T21:55:16.823Z,2.20
2023-05-05T22:00:22.942Z,1.98
2023-05-05T22:05:29.373Z,1.95
2023-05-05T22:10:35.680Z,2.30
2023-05-05T22:15:47.044Z,2.20
2023-05-05T22:20:56.676Z,2.20
2023-05-05T22:26:02.495Z,2.03
2023-05-05T22:31:09.313Z,2.10
2023-05-05T22:36:14.966Z,2.63
2023-05-05T22:41:20.751Z,2.60
2023-05-05T22:46:26.714Z,1.70
2023-05-05T22:51:32.810Z,2.60
2023-05-05T22:56:38.016Z,2.63
2023-05-05T23:01:43.631Z,2.55
2023-05-05T23:06:49.224Z,1.92
2023-05-05T23:11:54.845Z,2.15
2023-05-05T23:17:00.774Z,2.78
2023-05-05T23:22:06.612Z,2.35
2023-05-05T23:27:13.876Z,2.58
2023-05-05T23:32:20.747Z,2.75
2023-05-05T23:37:26.640Z,2.97
2023-05-05T23:42:32.155Z,2.35
2023-05-05T23:47:37.862Z,2.08
2023-05-05T23:52:43.301Z,2.13
2023-05-05T23:57:49.040Z,2.75
